sensor_id;sensor_type;location;lat;lon;timestamp;noise_LAeq;noise_LA_min;noise_LA_max;noise_LA01;noise_LA95
48503;Laerm;4954;48.476;8.168;2024-02-26T00:01:20;55.04;45.33;72.06;;
48503;Laerm;4954;48.476;8.168;2024-02-26T00:03:47;47.03;45.39;50.47;;
48503;Laerm;4954;48.476;8.168;2024-02-26T00:06:14;53.22;44.90;67.34;;
48503;Laerm;4954;48.476;8.168;2024-02-26T00:08:41;46.84;44.90;48.98;;
48503;Laerm;4954;48.476;8.168;2024-02-26T00:11:08;46.88;45.20;49.20;;
48503;Laerm;4954;48.476;8.168;2024-02-26T00:13:36;46.87;45.33;49.47;;
48503;Laerm;4954;48.476;8.168;2024-02-26T00:16:04;46.89;44.80;52.97;;
48503;Laerm;4954;48.476;8.168;2024-02-26T00:18:32;46.98;45.23;49.84;;
48503;Laerm;4954;48.476;8.168;2024-02-26T00:20:59;46.94;45.07;50.50;;
48503;Laerm;4954;48.476;8.168;2024-02-26T00:23:26;46.72;44.87;49.20;;
48503;Laerm;4954;48.476;8.168;2024-02-26T00:25:53;46.94;45.04;49.74;;
48503;Laerm;4954;48.476;8.168;2024-02-26T00:28:20;46.71;44.52;49.15;;
48503;Laerm;4954;48.476;8.168;2024-02-26T00:30:49;46.71;44.94;49.03;;
48503;Laerm;4954;48.476;8.168;2024-02-26T00:33:17;46.66;45.07;51.87;;
48503;Laerm;4954;48.476;8.168;2024-02-26T00:35:44;46.60;44.80;50.98;;
48503;Laerm;4954;48.476;8.168;2024-02-26T00:38:11;47.07;45.42;55.64;;
48503;Laerm;4954;48.476;8.168;2024-02-26T00:40:38;52.99;45.33;67.02;;
48503;Laerm;4954;48.476;8.168;2024-02-26T00:43:05;47.21;44.83;53.98;;
48503;Laerm;4954;48.476;8.168;2024-02-26T00:45:32;47.21;45.45;58.80;;
48503;Laerm;4954;48.476;8.168;2024-02-26T00:48:00;47.19;45.20;64.88;;
48503;Laerm;4954;48.476;8.168;2024-02-26T00:50:30;47.10;45.30;53.12;;
48503;Laerm;4954;48.476;8.168;2024-02-26T00:52:57;47.73;45.94;54.34;;
48503;Laerm;4954;48.476;8.168;2024-02-26T00:55:24;47.61;45.48;51.89;;
48503;Laerm;4954;48.476;8.168;2024-02-26T00:57:51;47.51;45.27;54.05;;
48503;Laerm;4954;48.476;8.168;2024-02-26T01:00:19;47.74;46.02;54.95;;
48503;Laerm;4954;48.476;8.168;2024-02-26T01:02:46;47.61;45.66;62.32;;
48503;Laerm;4954;48.476;8.168;2024-02-26T01:05:15;47.89;46.05;60.18;;
48503;Laerm;4954;48.476;8.168;2024-02-26T01:07:42;48.07;45.42;55.90;;
48503;Laerm;4954;48.476;8.168;2024-02-26T01:10:09;49.16;46.69;57.48;;
48503;Laerm;4954;48.476;8.168;2024-02-26T01:12:36;50.20;47.28;62.95;;
48503;Laerm;4954;48.476;8.168;2024-02-26T01:15:05;62.88;47.84;81.59;;
48503;Laerm;4954;48.476;8.168;2024-02-26T01:17:32;49.16;46.93;60.29;;
48503;Laerm;4954;48.476;8.168;2024-02-26T01:19:58;48.67;46.73;56.49;;
48503;Laerm;4954;48.476;8.168;2024-02-26T01:22:27;48.75;46.84;57.05;;
48503;Laerm;4954;48.476;8.168;2024-02-26T01:24:54;48.53;46.50;56.14;;
48503;Laerm;4954;48.476;8.168;2024-02-26T01:27:22;48.93;46.73;58.55;;
48503;Laerm;4954;48.476;8.168;2024-02-26T01:29:52;49.67;47.24;65.49;;
48503;Laerm;4954;48.476;8.168;2024-02-26T01:32:19;50.14;46.89;60.15;;
48503;Laerm;4954;48.476;8.168;2024-02-26T01:34:46;49.76;46.95;66.72;;
48503;Laerm;4954;48.476;8.168;2024-02-26T01:37:13;59.86;46.69;76.46;;
48503;Laerm;4954;48.476;8.168;2024-02-26T01:39:41;48.31;46.38;51.87;;
48503;Laerm;4954;48.476;8.168;2024-02-26T01:42:08;48.16;46.43;52.24;;
48503;Laerm;4954;48.476;8.168;2024-02-26T01:44:35;48.00;45.94;50.14;;
48503;Laerm;4954;48.476;8.168;2024-02-26T01:47:05;48.05;46.40;52.08;;
48503;Laerm;4954;48.476;8.168;2024-02-26T01:49:35;47.94;46.15;52.97;;
48503;Laerm;4954;48.476;8.168;2024-02-26T01:52:04;47.70;45.57;51.44;;
48503;Laerm;4954;48.476;8.168;2024-02-26T01:54:33;47.68;45.57;50.36;;
48503;Laerm;4954;48.476;8.168;2024-02-26T01:57:05;47.65;45.57;52.63;;
48503;Laerm;4954;48.476;8.168;2024-02-26T01:59:34;47.70;46.02;51.64;;
48503;Laerm;4954;48.476;8.168;2024-02-26T02:02:06;47.74;45.80;50.47;;
48503;Laerm;4954;48.476;8.168;2024-02-26T02:04:35;47.55;45.33;50.50;;
48503;Laerm;4954;48.476;8.168;2024-02-26T02:07:04;47.75;45.91;53.70;;
48503;Laerm;4954;48.476;8.168;2024-02-26T02:09:32;47.60;45.48;51.04;;
48503;Laerm;4954;48.476;8.168;2024-02-26T02:12:02;59.29;45.63;73.18;;
48503;Laerm;4954;48.476;8.168;2024-02-26T02:14:29;47.36;45.45;50.15;;
48503;Laerm;4954;48.476;8.168;2024-02-26T02:16:56;47.28;45.63;49.72;;
48503;Laerm;4954;48.476;8.168;2024-02-26T02:19:23;47.57;45.83;50.43;;
48503;Laerm;4954;48.476;8.168;2024-02-26T02:21:51;47.58;45.54;51.50;;
48503;Laerm;4954;48.476;8.168;2024-02-26T02:24:18;47.59;45.66;50.11;;
48503;Laerm;4954;48.476;8.168;2024-02-26T02:26:45;47.68;45.89;49.89;;
48503;Laerm;4954;48.476;8.168;2024-02-26T02:29:13;47.35;45.30;49.53;;
48503;Laerm;4954;48.476;8.168;2024-02-26T02:31:41;56.04;45.72;72.69;;
48503;Laerm;4954;48.476;8.168;2024-02-26T02:34:09;47.47;45.72;51.57;;
48503;Laerm;4954;48.476;8.168;2024-02-26T02:36:51;59.65;45.80;77.47;;
48503;Laerm;4954;48.476;8.168;2024-02-26T02:39:18;53.85;45.91;71.46;;
48503;Laerm;4954;48.476;8.168;2024-02-26T02:41:45;52.76;45.80;70.42;;
48503;Laerm;4954;48.476;8.168;2024-02-26T02:44:12;47.43;45.36;50.51;;
48503;Laerm;4954;48.476;8.168;2024-02-26T02:46:39;47.50;45.66;50.84;;
48503;Laerm;4954;48.476;8.168;2024-02-26T02:49:08;47.99;45.89;52.69;;
48503;Laerm;4954;48.476;8.168;2024-02-26T02:51:36;47.98;45.63;53.81;;
48503;Laerm;4954;48.476;8.168;2024-02-26T02:54:05;47.58;45.83;51.18;;
48503;Laerm;4954;48.476;8.168;2024-02-26T02:56:32;47.73;45.75;51.01;;
48503;Laerm;4954;48.476;8.168;2024-02-26T02:58:58;47.44;45.59;49.73;;
48503;Laerm;4954;48.476;8.168;2024-02-26T03:01:25;47.59;45.86;50.65;;
48503;Laerm;4954;48.476;8.168;2024-02-26T03:03:52;47.57;45.94;50.62;;
48503;Laerm;4954;48.476;8.168;2024-02-26T03:06:19;64.94;45.91;81.33;;
48503;Laerm;4954;48.476;8.168;2024-02-26T03:08:46;47.46;45.72;50.99;;
48503;Laerm;4954;48.476;8.168;2024-02-26T03:11:15;59.41;45.54;76.17;;
48503;Laerm;4954;48.476;8.168;2024-02-26T03:13:42;47.64;46.05;50.04;;
48503;Laerm;4954;48.476;8.168;2024-02-26T03:16:09;47.57;45.75;50.06;;
48503;Laerm;4954;48.476;8.168;2024-02-26T03:18:38;47.61;45.91;50.76;;
48503;Laerm;4954;48.476;8.168;2024-02-26T03:21:06;61.81;45.86;76.08;;
48503;Laerm;4954;48.476;8.168;2024-02-26T03:23:33;47.63;46.05;51.48;;
48503;Laerm;4954;48.476;8.168;2024-02-26T03:26:03;56.51;45.57;71.48;;
48503;Laerm;4954;48.476;8.168;2024-02-26T03:28:31;57.92;45.77;74.30;;
48503;Laerm;4954;48.476;8.168;2024-02-26T03:30:59;47.48;45.83;50.60;;
48503;Laerm;4954;48.476;8.168;2024-02-26T03:33:25;47.52;45.77;51.13;;
48503;Laerm;4954;48.476;8.168;2024-02-26T03:35:52;47.32;45.63;51.95;;
48503;Laerm;4954;48.476;8.168;2024-02-26T03:38:19;47.47;45.91;51.13;;
48503;Laerm;4954;48.476;8.168;2024-02-26T03:40:46;62.98;45.86;76.48;;
48503;Laerm;4954;48.476;8.168;2024-02-26T03:43:13;59.85;45.97;76.52;;
48503;Laerm;4954;48.476;8.168;2024-02-26T03:45:42;58.11;45.75;73.51;;
48503;Laerm;4954;48.476;8.168;2024-02-26T03:48:08;56.08;46.07;70.61;;
48503;Laerm;4954;48.476;8.168;2024-02-26T03:50:35;58.21;45.91;74.72;;
48503;Laerm;4954;48.476;8.168;2024-02-26T03:53:02;59.43;46.02;75.77;;
48503;Laerm;4954;48.476;8.168;2024-02-26T03:55:29;57.44;45.83;73.09;;
48503;Laerm;4954;48.476;8.168;2024-02-26T03:57:56;47.60;46.02;52.88;;
48503;Laerm;4954;48.476;8.168;2024-02-26T04:00:23;47.79;45.69;52.24;;
48503;Laerm;4954;48.476;8.168;2024-02-26T04:02:53;65.50;46.23;77.35;;
48503;Laerm;4954;48.476;8.168;2024-02-26T04:05:20;60.83;46.05;76.80;;
48503;Laerm;4954;48.476;8.168;2024-02-26T04:07:47;47.47;45.66;51.22;;
48503;Laerm;4954;48.476;8.168;2024-02-26T04:10:14;57.52;45.94;73.62;;
48503;Laerm;4954;48.476;8.168;2024-02-26T04:12:42;60.05;45.99;74.22;;
48503;Laerm;4954;48.476;8.168;2024-02-26T04:15:10;66.34;46.69;77.67;;
48503;Laerm;4954;48.476;8.168;2024-02-26T04:17:38;63.78;46.02;75.75;;
48503;Laerm;4954;48.476;8.168;2024-02-26T04:20:12;59.40;46.18;77.64;;
48503;Laerm;4954;48.476;8.168;2024-02-26T04:22:39;48.38;45.80;53.66;;
48503;Laerm;4954;48.476;8.168;2024-02-26T04:25:07;59.28;46.05;76.24;;
48503;Laerm;4954;48.476;8.168;2024-02-26T04:27:34;62.51;46.07;76.77;;
48503;Laerm;4954;48.476;8.168;2024-02-26T04:30:01;66.73;46.40;80.56;;
48503;Laerm;4954;48.476;8.168;2024-02-26T04:32:29;63.68;46.66;77.97;;
48503;Laerm;4954;48.476;8.168;2024-02-26T04:34:56;68.91;48.31;83.49;;
48503;Laerm;4954;48.476;8.168;2024-02-26T04:37:25;64.22;46.59;75.78;;
48503;Laerm;4954;48.476;8.168;2024-02-26T04:39:57;65.46;46.52;77.20;;
48503;Laerm;4954;48.476;8.168;2024-02-26T04:42:24;65.98;46.38;77.96;;
48503;Laerm;4954;48.476;8.168;2024-02-26T04:44:51;67.00;46.84;79.02;;
48503;Laerm;4954;48.476;8.168;2024-02-26T04:47:18;69.63;46.62;82.22;;
48503;Laerm;4954;48.476;8.168;2024-02-26T04:49:45;63.67;46.35;76.41;;
48503;Laerm;4954;48.476;8.168;2024-02-26T04:52:12;63.87;46.23;76.82;;
48503;Laerm;4954;48.476;8.168;2024-02-26T04:54:40;64.94;46.59;75.38;;
48503;Laerm;4954;48.476;8.168;2024-02-26T04:57:07;60.89;45.86;77.16;;
48503;Laerm;4954;48.476;8.168;2024-02-26T04:59:34;62.72;46.18;77.37;;
48503;Laerm;4954;48.476;8.168;2024-02-26T05:02:01;67.33;46.57;78.85;;
48503;Laerm;4954;48.476;8.168;2024-02-26T05:04:28;63.43;46.02;75.99;;
48503;Laerm;4954;48.476;8.168;2024-02-26T05:06:54;65.11;45.97;76.47;;
48503;Laerm;4954;48.476;8.168;2024-02-26T05:09:22;64.28;46.91;76.78;;
48503;Laerm;4954;48.476;8.168;2024-02-26T05:11:50;66.18;46.66;79.04;;
48503;Laerm;4954;48.476;8.168;2024-02-26T05:14:17;63.80;46.57;74.69;;
48503;Laerm;4954;48.476;8.168;2024-02-26T05:16:44;65.62;47.04;76.29;;
48503;Laerm;4954;48.476;8.168;2024-02-26T05:19:11;63.08;46.48;78.38;;
48503;Laerm;4954;48.476;8.168;2024-02-26T05:21:38;67.04;46.38;78.13;;
48503;Laerm;4954;48.476;8.168;2024-02-26T05:24:06;66.49;46.91;79.65;;
48503;Laerm;4954;48.476;8.168;2024-02-26T05:26:33;63.28;46.48;75.96;;
48503;Laerm;4954;48.476;8.168;2024-02-26T05:29:01;67.01;47.06;76.35;;
48503;Laerm;4954;48.476;8.168;2024-02-26T05:31:28;68.04;47.20;78.50;;
48503;Laerm;4954;48.476;8.168;2024-02-26T05:33:55;66.70;46.97;77.39;;
48503;Laerm;4954;48.476;8.168;2024-02-26T05:36:23;70.13;54.08;77.06;;
48503;Laerm;4954;48.476;8.168;2024-02-26T05:38:51;67.65;47.18;77.56;;
48503;Laerm;4954;48.476;8.168;2024-02-26T05:41:18;64.91;48.29;76.63;;
48503;Laerm;4954;48.476;8.168;2024-02-26T05:43:48;67.52;47.72;79.84;;
48503;Laerm;4954;48.476;8.168;2024-02-26T05:46:18;67.71;48.80;77.77;;
48503;Laerm;4954;48.476;8.168;2024-02-26T05:48:47;69.01;50.20;76.56;;
48503;Laerm;4954;48.476;8.168;2024-02-26T05:51:14;65.19;47.57;75.76;;
48503;Laerm;4954;48.476;8.168;2024-02-26T05:53:41;69.22;54.97;76.40;;
48503;Laerm;4954;48.476;8.168;2024-02-26T05:56:08;68.66;46.38;79.67;;
48503;Laerm;4954;48.476;8.168;2024-02-26T05:58:35;67.76;47.06;78.31;;
48503;Laerm;4954;48.476;8.168;2024-02-26T06:01:02;66.58;47.24;76.31;;
48503;Laerm;4954;48.476;8.168;2024-02-26T06:03:30;65.09;47.68;76.51;;
48503;Laerm;4954;48.476;8.168;2024-02-26T06:05:58;67.91;47.48;78.94;;
48503;Laerm;4954;48.476;8.168;2024-02-26T06:08:25;67.24;46.95;77.93;;
48503;Laerm;4954;48.476;8.168;2024-02-26T06:10:51;69.87;52.30;77.99;;
48503;Laerm;4954;48.476;8.168;2024-02-26T06:13:19;69.67;49.83;80.12;;
48503;Laerm;4954;48.476;8.168;2024-02-26T06:15:46;71.52;48.88;86.57;;
48503;Laerm;4954;48.476;8.168;2024-02-26T06:18:13;66.84;46.55;80.19;;
48503;Laerm;4954;48.476;8.168;2024-02-26T06:20:42;69.13;47.38;79.56;;
48503;Laerm;4954;48.476;8.168;2024-02-26T06:23:09;68.97;48.40;77.11;;
48503;Laerm;4954;48.476;8.168;2024-02-26T06:25:35;66.40;47.81;75.90;;
48503;Laerm;4954;48.476;8.168;2024-02-26T06:28:03;65.88;47.65;76.57;;
48503;Laerm;4954;48.476;8.168;2024-02-26T06:30:30;68.70;49.38;77.30;;
48503;Laerm;4954;48.476;8.168;2024-02-26T06:32:57;69.03;47.86;77.37;;
48503;Laerm;4954;48.476;8.168;2024-02-26T06:35:24;67.03;47.30;79.43;;
48503;Laerm;4954;48.476;8.168;2024-02-26T06:37:52;71.95;47.42;89.45;;
48503;Laerm;4954;48.476;8.168;2024-02-26T06:40:36;68.08;50.88;76.13;;
48503;Laerm;4954;48.476;8.168;2024-02-26T06:43:08;66.88;48.08;77.36;;
48503;Laerm;4954;48.476;8.168;2024-02-26T06:45:40;68.69;50.31;77.05;;
48503;Laerm;4954;48.476;8.168;2024-02-26T06:48:07;65.99;46.69;76.34;;
48503;Laerm;4954;48.476;8.168;2024-02-26T06:50:34;67.02;50.14;76.35;;
48503;Laerm;4954;48.476;8.168;2024-02-26T06:53:03;66.30;50.69;77.25;;
48503;Laerm;4954;48.476;8.168;2024-02-26T06:55:32;65.81;48.84;75.33;;
48503;Laerm;4954;48.476;8.168;2024-02-26T06:57:59;66.27;50.59;74.75;;
48503;Laerm;4954;48.476;8.168;2024-02-26T07:00:26;65.62;48.16;75.39;;
48503;Laerm;4954;48.476;8.168;2024-02-26T07:02:52;66.31;48.87;75.30;;
48503;Laerm;4954;48.476;8.168;2024-02-26T07:05:19;67.77;50.19;76.13;;
48503;Laerm;4954;48.476;8.168;2024-02-26T07:07:46;65.59;48.36;75.67;;
48503;Laerm;4954;48.476;8.168;2024-02-26T07:10:14;67.83;51.17;76.09;;
48503;Laerm;4954;48.476;8.168;2024-02-26T07:12:41;68.96;46.76;85.33;;
48503;Laerm;4954;48.476;8.168;2024-02-26T07:15:10;64.25;47.57;73.56;;
48503;Laerm;4954;48.476;8.168;2024-02-26T07:17:37;68.09;53.46;77.34;;
48503;Laerm;4954;48.476;8.168;2024-02-26T07:20:08;68.11;47.86;78.29;;
48503;Laerm;4954;48.476;8.168;2024-02-26T07:22:36;64.32;47.00;73.25;;
48503;Laerm;4954;48.476;8.168;2024-02-26T07:25:03;68.60;47.72;84.78;;
48503;Laerm;4954;48.476;8.168;2024-02-26T07:27:35;65.93;46.64;74.92;;
48503;Laerm;4954;48.476;8.168;2024-02-26T07:30:03;63.01;46.52;75.37;;
48503;Laerm;4954;48.476;8.168;2024-02-26T07:32:30;69.37;47.34;79.54;;
48503;Laerm;4954;48.476;8.168;2024-02-26T07:34:57;64.60;46.91;76.11;;
48503;Laerm;4954;48.476;8.168;2024-02-26T07:37:24;65.17;46.71;76.42;;
48503;Laerm;4954;48.476;8.168;2024-02-26T07:39:50;63.35;47.90;73.04;;
48503;Laerm;4954;48.476;8.168;2024-02-26T07:42:17;66.05;49.72;75.95;;
48503;Laerm;4954;48.476;8.168;2024-02-26T07:44:45;66.61;47.08;74.96;;
48503;Laerm;4954;48.476;8.168;2024-02-26T07:47:12;67.18;47.44;79.47;;
48503;Laerm;4954;48.476;8.168;2024-02-26T07:49:39;65.90;48.48;77.82;;
48503;Laerm;4954;48.476;8.168;2024-02-26T07:52:06;65.01;46.93;73.69;;
48503;Laerm;4954;48.476;8.168;2024-02-26T07:54:33;67.62;49.15;75.46;;
48503;Laerm;4954;48.476;8.168;2024-02-26T07:57:01;66.30;46.89;78.64;;
48503;Laerm;4954;48.476;8.168;2024-02-26T07:59:31;66.23;48.36;73.81;;
48503;Laerm;4954;48.476;8.168;2024-02-26T08:01:59;61.56;46.69;72.44;;
48503;Laerm;4954;48.476;8.168;2024-02-26T08:04:28;63.98;47.55;74.15;;
48503;Laerm;4954;48.476;8.168;2024-02-26T08:06:55;68.71;48.71;84.11;;
48503;Laerm;4954;48.476;8.168;2024-02-26T08:09:22;65.03;46.80;79.95;;
48503;Laerm;4954;48.476;8.168;2024-02-26T08:11:49;66.31;46.30;82.18;;
48503;Laerm;4954;48.476;8.168;2024-02-26T08:14:16;65.06;46.97;76.13;;
48503;Laerm;4954;48.476;8.168;2024-02-26T08:16:43;66.01;46.64;73.58;;
48503;Laerm;4954;48.476;8.168;2024-02-26T08:19:11;63.44;46.18;74.40;;
48503;Laerm;4954;48.476;8.168;2024-02-26T08:21:40;67.14;46.59;81.82;;
48503;Laerm;4954;48.476;8.168;2024-02-26T08:24:07;65.37;47.28;74.85;;
48503;Laerm;4954;48.476;8.168;2024-02-26T08:26:34;62.80;46.55;75.44;;
48503;Laerm;4954;48.476;8.168;2024-02-26T08:29:01;67.42;47.22;81.19;;
48503;Laerm;4954;48.476;8.168;2024-02-26T08:31:28;63.50;46.69;75.16;;
48503;Laerm;4954;48.476;8.168;2024-02-26T08:33:55;64.39;47.06;76.31;;
48503;Laerm;4954;48.476;8.168;2024-02-26T08:36:25;63.49;47.12;74.33;;
48503;Laerm;4954;48.476;8.168;2024-02-26T08:38:52;64.41;47.26;74.01;;
48503;Laerm;4954;48.476;8.168;2024-02-26T08:41:18;63.87;46.18;74.55;;
48503;Laerm;4954;48.476;8.168;2024-02-26T08:43:45;62.36;46.50;74.89;;
48503;Laerm;4954;48.476;8.168;2024-02-26T08:46:13;62.69;46.13;72.94;;
48503;Laerm;4954;48.476;8.168;2024-02-26T08:48:39;64.65;46.78;75.51;;
48503;Laerm;4954;48.476;8.168;2024-02-26T08:51:07;56.05;45.94;69.54;;
48503;Laerm;4954;48.476;8.168;2024-02-26T08:53:36;65.63;46.66;86.03;;
48503;Laerm;4954;48.476;8.168;2024-02-26T08:56:04;64.55;47.24;73.30;;
48503;Laerm;4954;48.476;8.168;2024-02-26T08:58:31;64.20;46.76;76.06;;
48503;Laerm;4954;48.476;8.168;2024-02-26T09:00:58;63.00;46.52;72.79;;
48503;Laerm;4954;48.476;8.168;2024-02-26T09:03:25;68.94;49.64;90.95;;
48503;Laerm;4954;48.476;8.168;2024-02-26T09:05:52;65.08;47.26;76.56;;
48503;Laerm;4954;48.476;8.168;2024-02-26T09:08:19;67.31;48.81;80.07;;
48503;Laerm;4954;48.476;8.168;2024-02-26T09:10:50;64.31;48.71;73.81;;
48503;Laerm;4954;48.476;8.168;2024-02-26T09:13:17;65.99;47.52;76.96;;
48503;Laerm;4954;48.476;8.168;2024-02-26T09:15:44;64.40;47.86;73.58;;
48503;Laerm;4954;48.476;8.168;2024-02-26T09:18:11;64.15;47.50;74.80;;
48503;Laerm;4954;48.476;8.168;2024-02-26T09:20:38;64.75;47.55;73.50;;
48503;Laerm;4954;48.476;8.168;2024-02-26T09:23:05;63.57;47.30;73.11;;
48503;Laerm;4954;48.476;8.168;2024-02-26T09:25:32;64.66;47.04;74.66;;
48503;Laerm;4954;48.476;8.168;2024-02-26T09:28:01;62.09;47.26;72.43;;
48503;Laerm;4954;48.476;8.168;2024-02-26T09:30:29;61.13;46.45;72.59;;
48503;Laerm;4954;48.476;8.168;2024-02-26T09:32:56;64.31;49.28;72.62;;
48503;Laerm;4954;48.476;8.168;2024-02-26T09:35:22;62.91;46.50;76.29;;
48503;Laerm;4954;48.476;8.168;2024-02-26T09:37:49;58.17;46.48;71.68;;
48503;Laerm;4954;48.476;8.168;2024-02-26T09:40:16;63.75;46.55;74.21;;
48503;Laerm;4954;48.476;8.168;2024-02-26T09:42:44;61.89;46.05;73.49;;
48503;Laerm;4954;48.476;8.168;2024-02-26T09:45:19;63.28;47.96;75.84;;
48503;Laerm;4954;48.476;8.168;2024-02-26T09:47:48;68.90;46.64;88.09;;
48503;Laerm;4954;48.476;8.168;2024-02-26T09:50:17;64.08;47.00;75.53;;
48503;Laerm;4954;48.476;8.168;2024-02-26T09:52:48;60.98;46.82;73.34;;
48503;Laerm;4954;48.476;8.168;2024-02-26T09:55:15;70.57;47.10;84.12;;
48503;Laerm;4954;48.476;8.168;2024-02-26T09:57:46;60.60;46.48;73.04;;
48503;Laerm;4954;48.476;8.168;2024-02-26T10:00:19;60.06;45.80;70.90;;
48503;Laerm;4954;48.476;8.168;2024-02-26T10:02:48;63.30;47.06;74.81;;
48503;Laerm;4954;48.476;8.168;2024-02-26T10:05:17;59.77;46.40;69.31;;
48503;Laerm;4954;48.476;8.168;2024-02-26T10:07:45;63.67;47.84;76.55;;
48503;Laerm;4954;48.476;8.168;2024-02-26T10:10:13;60.19;46.80;70.04;;
48503;Laerm;4954;48.476;8.168;2024-02-26T10:12:40;60.42;46.91;77.46;;
48503;Laerm;4954;48.476;8.168;2024-02-26T10:15:08;59.46;45.94;70.16;;
48503;Laerm;4954;48.476;8.168;2024-02-26T10:17:38;62.91;47.18;71.44;;
48503;Laerm;4954;48.476;8.168;2024-02-26T10:20:14;60.64;46.23;72.80;;
48503;Laerm;4954;48.476;8.168;2024-02-26T10:22:43;59.68;46.52;72.86;;
48503;Laerm;4954;48.476;8.168;2024-02-26T10:25:10;61.54;46.45;76.20;;
48503;Laerm;4954;48.476;8.168;2024-02-26T10:27:37;60.52;45.94;73.16;;
48503;Laerm;4954;48.476;8.168;2024-02-26T10:30:16;61.04;46.23;76.74;;
48503;Laerm;4954;48.476;8.168;2024-02-26T10:32:45;65.08;46.55;79.79;;
48503;Laerm;4954;48.476;8.168;2024-02-26T10:35:13;64.38;46.73;77.83;;
48503;Laerm;4954;48.476;8.168;2024-02-26T10:37:41;59.47;46.05;69.34;;
48503;Laerm;4954;48.476;8.168;2024-02-26T10:40:10;61.99;46.84;72.50;;
48503;Laerm;4954;48.476;8.168;2024-02-26T10:42:38;66.03;48.94;76.76;;
48503;Laerm;4954;48.476;8.168;2024-02-26T10:45:06;63.70;46.62;79.38;;
48503;Laerm;4954;48.476;8.168;2024-02-26T10:47:34;64.68;46.45;79.13;;
48503;Laerm;4954;48.476;8.168;2024-02-26T10:50:05;60.81;46.25;73.05;;
48503;Laerm;4954;48.476;8.168;2024-02-26T10:52:34;60.73;47.40;72.73;;
48503;Laerm;4954;48.476;8.168;2024-02-26T10:55:04;64.20;47.36;71.88;;
48503;Laerm;4954;48.476;8.168;2024-02-26T10:57:35;61.85;46.28;71.18;;
48503;Laerm;4954;48.476;8.168;2024-02-26T11:00:06;61.98;46.40;77.73;;
48503;Laerm;4954;48.476;8.168;2024-02-26T11:02:36;62.78;47.14;70.80;;
48503;Laerm;4954;48.476;8.168;2024-02-26T11:05:06;64.23;48.02;73.74;;
48503;Laerm;4954;48.476;8.168;2024-02-26T11:07:35;61.19;45.99;71.32;;
48503;Laerm;4954;48.476;8.168;2024-02-26T11:10:05;62.91;46.18;72.23;;
48503;Laerm;4954;48.476;8.168;2024-02-26T11:12:36;62.14;46.76;71.75;;
48503;Laerm;4954;48.476;8.168;2024-02-26T11:15:05;65.02;45.80;77.41;;
48503;Laerm;4954;48.476;8.168;2024-02-26T11:17:32;64.97;49.24;75.03;;
48503;Laerm;4954;48.476;8.168;2024-02-26T11:20:01;58.31;46.05;69.46;;
48503;Laerm;4954;48.476;8.168;2024-02-26T11:22:29;64.46;46.10;79.54;;
48503;Laerm;4954;48.476;8.168;2024-02-26T11:24:58;63.17;47.90;73.35;;
48503;Laerm;4954;48.476;8.168;2024-02-26T11:30:15;62.30;46.10;74.37;;
48503;Laerm;4954;48.476;8.168;2024-02-26T11:32:44;60.62;45.86;71.04;;
48503;Laerm;4954;48.476;8.168;2024-02-26T11:35:13;62.76;46.33;74.46;;
48503;Laerm;4954;48.476;8.168;2024-02-26T11:37:53;63.09;46.20;73.17;;
48503;Laerm;4954;48.476;8.168;2024-02-26T11:40:23;61.22;46.69;70.83;;
48503;Laerm;4954;48.476;8.168;2024-02-26T11:42:53;63.58;46.82;73.39;;
48503;Laerm;4954;48.476;8.168;2024-02-26T11:45:52;62.21;45.99;78.95;;
48503;Laerm;4954;48.476;8.168;2024-02-26T11:48:24;59.51;45.77;78.25;;
48503;Laerm;4954;48.476;8.168;2024-02-26T11:50:53;60.64;45.83;73.20;;
48503;Laerm;4954;48.476;8.168;2024-02-26T11:53:25;60.14;45.66;72.98;;
48503;Laerm;4954;48.476;8.168;2024-02-26T11:56:30;63.18;45.86;74.04;;
48503;Laerm;4954;48.476;8.168;2024-02-26T11:59:03;61.82;46.25;74.72;;
48503;Laerm;4954;48.476;8.168;2024-02-26T12:01:44;60.63;46.69;71.65;;
48503;Laerm;4954;48.476;8.168;2024-02-26T12:04:17;58.66;46.18;73.69;;
48503;Laerm;4954;48.476;8.168;2024-02-26T12:06:50;60.40;46.10;71.08;;
48503;Laerm;4954;48.476;8.168;2024-02-26T12:09:39;57.98;46.13;69.92;;
48503;Laerm;4954;48.476;8.168;2024-02-26T12:12:08;63.63;47.76;74.61;;
48503;Laerm;4954;48.476;8.168;2024-02-26T12:14:38;57.45;45.66;73.25;;
48503;Laerm;4954;48.476;8.168;2024-02-26T12:17:07;62.31;46.25;75.46;;
48503;Laerm;4954;48.476;8.168;2024-02-26T12:19:35;60.17;46.07;71.06;;
48503;Laerm;4954;48.476;8.168;2024-02-26T12:22:03;62.38;47.53;72.41;;
48503;Laerm;4954;48.476;8.168;2024-02-26T12:24:33;59.77;45.97;73.83;;
48503;Laerm;4954;48.476;8.168;2024-02-26T12:27:01;63.02;48.42;72.63;;
48503;Laerm;4954;48.476;8.168;2024-02-26T12:29:29;64.61;47.72;73.50;;
48503;Laerm;4954;48.476;8.168;2024-02-26T12:31:56;62.12;46.05;75.11;;
48503;Laerm;4954;48.476;8.168;2024-02-26T12:34:23;64.01;49.20;74.28;;
48503;Laerm;4954;48.476;8.168;2024-02-26T12:36:50;60.56;45.97;70.72;;
48503;Laerm;4954;48.476;8.168;2024-02-26T12:39:17;63.30;47.76;73.73;;
48503;Laerm;4954;48.476;8.168;2024-02-26T12:41:45;63.27;45.80;74.17;;
48503;Laerm;4954;48.476;8.168;2024-02-26T12:44:16;63.26;46.84;72.97;;
48503;Laerm;4954;48.476;8.168;2024-02-26T12:46:43;58.17;46.18;72.22;;
48503;Laerm;4954;48.476;8.168;2024-02-26T12:49:15;60.88;47.34;71.06;;
48503;Laerm;4954;48.476;8.168;2024-02-26T12:51:44;66.60;47.76;83.19;;
48503;Laerm;4954;48.476;8.168;2024-02-26T12:54:13;66.50;45.94;78.87;;
48503;Laerm;4954;48.476;8.168;2024-02-26T12:56:40;69.97;45.69;85.77;;
48503;Laerm;4954;48.476;8.168;2024-02-26T12:59:09;61.97;45.91;73.61;;
48503;Laerm;4954;48.476;8.168;2024-02-26T13:01:38;61.89;45.33;72.54;;
48503;Laerm;4954;48.476;8.168;2024-02-26T13:04:06;64.23;47.83;77.01;;
48503;Laerm;4954;48.476;8.168;2024-02-26T13:06:33;61.70;47.91;71.12;;
48503;Laerm;4954;48.476;8.168;2024-02-26T13:09:02;60.54;46.30;69.59;;
48503;Laerm;4954;48.476;8.168;2024-02-26T13:11:29;63.35;48.20;73.20;;
48503;Laerm;4954;48.476;8.168;2024-02-26T13:13:58;61.27;46.45;71.82;;
48503;Laerm;4954;48.476;8.168;2024-02-26T13:16:25;65.37;46.89;77.60;;
48503;Laerm;4954;48.476;8.168;2024-02-26T13:18:54;61.74;48.13;71.07;;
48503;Laerm;4954;48.476;8.168;2024-02-26T13:21:23;58.81;46.20;70.76;;
48503;Laerm;4954;48.476;8.168;2024-02-26T13:23:53;67.05;49.66;83.46;;
48503;Laerm;4954;48.476;8.168;2024-02-26T13:26:22;64.64;46.84;84.30;;
48503;Laerm;4954;48.476;8.168;2024-02-26T13:29:01;63.35;48.39;74.17;;
48503;Laerm;4954;48.476;8.168;2024-02-26T13:31:29;63.07;46.64;76.67;;
48503;Laerm;4954;48.476;8.168;2024-02-26T13:33:58;60.26;46.30;70.64;;
48503;Laerm;4954;48.476;8.168;2024-02-26T13:36:27;62.91;48.63;73.51;;
48503;Laerm;4954;48.476;8.168;2024-02-26T13:38:54;61.38;47.55;70.85;;
48503;Laerm;4954;48.476;8.168;2024-02-26T13:41:22;60.49;46.48;78.95;;
48503;Laerm;4954;48.476;8.168;2024-02-26T13:43:50;60.55;45.94;69.85;;
48503;Laerm;4954;48.476;8.168;2024-02-26T13:46:17;67.14;47.46;81.85;;
48503;Laerm;4954;48.476;8.168;2024-02-26T13:48:44;66.14;47.26;80.63;;
48503;Laerm;4954;48.476;8.168;2024-02-26T13:51:13;59.98;46.20;70.00;;
48503;Laerm;4954;48.476;8.168;2024-02-26T13:53:40;61.51;46.55;70.79;;
48503;Laerm;4954;48.476;8.168;2024-02-26T13:56:07;64.78;47.54;76.61;;
48503;Laerm;4954;48.476;8.168;2024-02-26T13:58:34;62.65;47.00;71.53;;
48503;Laerm;4954;48.476;8.168;2024-02-26T14:01:01;60.80;46.07;72.36;;
48503;Laerm;4954;48.476;8.168;2024-02-26T14:03:29;65.21;46.66;76.70;;
48503;Laerm;4954;48.476;8.168;2024-02-26T14:05:56;59.12;46.23;69.43;;